sensor_id;sensor_type;location;lat;lon;timestamp;P1;durP1;ratioP1;P2;durP2;ratioP2
22490;SDS011;11412;50.802;4.350;2023-07-30T00:01:57;7.95;;;2.70;;
22490;SDS011;11412;50.802;4.350;2023-07-30T00:04:24;8.48;;;3.22;;
22490;SDS011;11412;50.802;4.350;2023-07-30T00:06:50;9.13;;;2.63;;
22490;SDS011;11412;50.802;4.350;2023-07-30T00:09:15;10.55;;;2.28;;
22490;SDS011;11412;50.802;4.350;2023-07-30T00:11:41;10.40;;;2.90;;
22490;SDS011;11412;50.802;4.350;2023-07-30T00:14:07;7.55;;;2.30;;
22490;SDS011;11412;50.802;4.350;2023-07-30T00:16:32;7.57;;;2.63;;
22490;SDS011;11412;50.802;4.350;2023-07-30T00:18:58;9.10;;;2.85;;
22490;SDS011;11412;50.802;4.350;2023-07-30T00:21:24;7.72;;;2.50;;
22490;SDS011;11412;50.802;4.350;2023-07-30T00:23:49;8.68;;;2.10;;
22490;SDS011;11412;50.802;4.350;2023-07-30T00:26:15;6.50;;;2.17;;
22490;SDS011;11412;50.802;4.350;2023-07-30T00:28:41;6.75;;;2.40;;
22490;SDS011;11412;50.802;4.350;2023-07-30T00:31:06;9.38;;;2.80;;
22490;SDS011;11412;50.802;4.350;2023-07-30T00:33:32;7.03;;;2.47;;
22490;SDS011;11412;50.802;4.350;2023-07-30T00:35:57;6.45;;;2.33;;
22490;SDS011;11412;50.802;4.350;2023-07-30T00:38:23;6.90;;;2.83;;
22490;SDS011;11412;50.802;4.350;2023-07-30T00:40:49;9.20;;;2.22;;
22490;SDS011;11412;50.802;4.350;2023-07-30T00:43:14;7.68;;;2.60;;
22490;SDS011;11412;50.802;4.350;2023-07-30T00:45:41;7.53;;;2.25;;
22490;SDS011;11412;50.802;4.350;2023-07-30T00:48:09;9.35;;;2.28;;
22490;SDS011;11412;50.802;4.350;2023-07-30T00:50:36;12.75;;;3.15;;
22490;SDS011;11412;50.802;4.350;2023-07-30T00:53:03;7.75;;;2.28;;
22490;SDS011;11412;50.802;4.350;2023-07-30T00:55:29;12.48;;;2.60;;
22490;SDS011;11412;50.802;4.350;2023-07-30T00:57:54;7.97;;;2.58;;
22490;SDS011;11412;50.802;4.350;2023-07-30T01:00:22;6.13;;;2.53;;
22490;SDS011;11412;50.802;4.350;2023-07-30T01:02:49;9.52;;;2.50;;
22490;SDS011;11412;50.802;4.350;2023-07-30T01:05:17;6.85;;;2.17;;
22490;SDS011;11412;50.802;4.350;2023-07-30T01:07:43;4.82;;;2.20;;
22490;SDS011;11412;50.802;4.350;2023-07-30T01:10:09;9.52;;;2.88;;
22490;SDS011;11412;50.802;4.350;2023-07-30T01:12:34;9.15;;;2.60;;
22490;SDS011;11412;50.802;4.350;2023-07-30T01:15:02;9.40;;;2.60;;
22490;SDS011;11412;50.802;4.350;2023-07-30T01:17:29;8.73;;;2.85;;
22490;SDS011;11412;50.802;4.350;2023-07-30T01:19:55;6.65;;;2.05;;
22490;SDS011;11412;50.802;4.350;2023-07-30T01:22:21;8.10;;;2.53;;
22490;SDS011;11412;50.802;4.350;2023-07-30T01:24:47;9.15;;;2.40;;
22490;SDS011;11412;50.802;4.350;2023-07-30T01:27:16;7.53;;;2.42;;
22490;SDS011;11412;50.802;4.350;2023-07-30T01:32:17;8.00;;;2.42;;
22490;SDS011;11412;50.802;4.350;2023-07-30T01:34:44;8.45;;;2.42;;
22490;SDS011;11412;50.802;4.350;2023-07-30T01:37:14;8.23;;;2.30;;
22490;SDS011;11412;50.802;4.350;2023-07-30T01:39:41;12.45;;;2.45;;
22490;SDS011;11412;50.802;4.350;2023-07-30T01:42:11;9.13;;;2.45;;
22490;SDS011;11412;50.802;4.350;2023-07-30T01:44:37;9.50;;;2.97;;
22490;SDS011;11412;50.802;4.350;2023-07-30T01:47:03;13.20;;;2.42;;
22490;SDS011;11412;50.802;4.350;2023-07-30T01:49:28;7.75;;;2.10;;
22490;SDS011;11412;50.802;4.350;2023-07-30T01:51:54;7.38;;;2.35;;
22490;SDS011;11412;50.802;4.350;2023-07-30T01:54:20;10.20;;;2.50;;
22490;SDS011;11412;50.802;4.350;2023-07-30T01:56:45;9.20;;;2.10;;
22490;SDS011;11412;50.802;4.350;2023-07-30T01:59:11;10.93;;;2.10;;
22490;SDS011;11412;50.802;4.350;2023-07-30T02:01:36;11.20;;;2.65;;
22490;SDS011;11412;50.802;4.350;2023-07-30T02:04:02;7.10;;;1.92;;
22490;SDS011;11412;50.802;4.350;2023-07-30T02:06:28;13.23;;;2.80;;
22490;SDS011;11412;50.802;4.350;2023-07-30T02:08:53;10.80;;;2.20;;
22490;SDS011;11412;50.802;4.350;2023-07-30T02:11:19;6.65;;;2.28;;
22490;SDS011;11412;50.802;4.350;2023-07-30T02:13:45;10.68;;;2.63;;
22490;SDS011;11412;50.802;4.350;2023-07-30T02:16:10;8.00;;;2.00;;
22490;SDS011;11412;50.802;4.350;2023-07-30T02:18:36;12.93;;;2.58;;
22490;SDS011;11412;50.802;4.350;2023-07-30T02:21:02;8.30;;;2.08;;
22490;SDS011;11412;50.802;4.350;2023-07-30T02:23:27;13.35;;;2.95;;
22490;SDS011;11412;50.802;4.350;2023-07-30T02:25:53;9.73;;;2.20;;
22490;SDS011;11412;50.802;4.350;2023-07-30T02:28:19;9.60;;;2.45;;
22490;SDS011;11412;50.802;4.350;2023-07-30T02:30:45;10.00;;;2.33;;
22490;SDS011;11412;50.802;4.350;2023-07-30T02:33:10;7.13;;;1.77;;
22490;SDS011;11412;50.802;4.350;2023-07-30T02:35:36;8.63;;;2.35;;
22490;SDS011;11412;50.802;4.350;2023-07-30T02:38:02;8.48;;;1.98;;
22490;SDS011;11412;50.802;4.350;2023-07-30T02:40:28;8.82;;;1.92;;
22490;SDS011;11412;50.802;4.350;2023-07-30T02:42:54;6.07;;;1.83;;
22490;SDS011;11412;50.802;4.350;2023-07-30T02:45:19;9.55;;;2.40;;
22490;SDS011;11412;50.802;4.350;2023-07-30T02:47:45;10.10;;;1.90;;
22490;SDS011;11412;50.802;4.350;2023-07-30T02:50:11;7.45;;;2.00;;
22490;SDS011;11412;50.802;4.350;2023-07-30T02:52:36;10.35;;;2.28;;
22490;SDS011;11412;50.802;4.350;2023-07-30T02:55:02;11.52;;;2.65;;
22490;SDS011;11412;50.802;4.350;2023-07-30T02:57:29;13.48;;;2.42;;
22490;SDS011;11412;50.802;4.350;2023-07-30T02:59:54;11.55;;;2.35;;
22490;SDS011;11412;50.802;4.350;2023-07-30T03:02:20;9.52;;;2.30;;
22490;SDS011;11412;50.802;4.350;2023-07-30T03:04:46;12.15;;;2.17;;
22490;SDS011;11412;50.802;4.350;2023-07-30T03:07:11;6.32;;;2.40;;
22490;SDS011;11412;50.802;4.350;2023-07-30T03:09:37;10.45;;;2.45;;
22490;SDS011;11412;50.802;4.350;2023-07-30T03:12:03;8.52;;;2.13;;
22490;SDS011;11412;50.802;4.350;2023-07-30T03:14:29;9.98;;;2.00;;
22490;SDS011;11412;50.802;4.350;2023-07-30T03:16:55;12.52;;;2.80;;
22490;SDS011;11412;50.802;4.350;2023-07-30T03:19:22;8.02;;;2.08;;
22490;SDS011;11412;50.802;4.350;2023-07-30T03:21:48;9.63;;;2.33;;
22490;SDS011;11412;50.802;4.350;2023-07-30T03:24:13;4.50;;;1.65;;
22490;SDS011;11412;50.802;4.350;2023-07-30T03:26:39;10.48;;;2.20;;
22490;SDS011;11412;50.802;4.350;2023-07-30T03:29:04;14.82;;;2.60;;
22490;SDS011;11412;50.802;4.350;2023-07-30T03:31:30;8.15;;;2.03;;
22490;SDS011;11412;50.802;4.350;2023-07-30T03:33:56;12.18;;;2.17;;
22490;SDS011;11412;50.802;4.350;2023-07-30T03:36:21;8.48;;;2.25;;
22490;SDS011;11412;50.802;4.350;2023-07-30T03:38:47;5.93;;;1.98;;
22490;SDS011;11412;50.802;4.350;2023-07-30T03:41:12;10.23;;;2.25;;
22490;SDS011;11412;50.802;4.350;2023-07-30T03:43:38;10.00;;;2.05;;
22490;SDS011;11412;50.802;4.350;2023-07-30T03:46:04;10.88;;;2.28;;
22490;SDS011;11412;50.802;4.350;2023-07-30T03:48:29;13.27;;;2.58;;
22490;SDS011;11412;50.802;4.350;2023-07-30T03:50:55;7.22;;;2.10;;
22490;SDS011;11412;50.802;4.350;2023-07-30T03:53:22;16.25;;;2.50;;
22490;SDS011;11412;50.802;4.350;2023-07-30T03:55:48;10.02;;;2.78;;
22490;SDS011;11412;50.802;4.350;2023-07-30T03:58:13;11.07;;;2.25;;
22490;SDS011;11412;50.802;4.350;2023-07-30T04:00:39;8.90;;;1.90;;
22490;SDS011;11412;50.802;4.350;2023-07-30T04:03:05;9.13;;;2.15;;
22490;SDS011;11412;50.802;4.350;2023-07-30T04:05:31;14.80;;;2.78;;
22490;SDS011;11412;50.802;4.350;2023-07-30T04:07:57;10.52;;;2.10;;
22490;SDS011;11412;50.802;4.350;2023-07-30T04:10:23;10.90;;;2.13;;
22490;SDS011;11412;50.802;4.350;2023-07-30T04:12:49;15.48;;;2.25;;
22490;SDS011;11412;50.802;4.350;2023-07-30T04:15:15;12.88;;;2.60;;
22490;SDS011;11412;50.802;4.350;2023-07-30T04:17:41;11.13;;;2.33;;
22490;SDS011;11412;50.802;4.350;2023-07-30T04:20:07;14.82;;;2.65;;
22490;SDS011;11412;50.802;4.350;2023-07-30T04:22:34;13.45;;;2.45;;
22490;SDS011;11412;50.802;4.350;2023-07-30T04:25:02;11.25;;;3.00;;
22490;SDS011;11412;50.802;4.350;2023-07-30T04:27:28;13.38;;;2.40;;
22490;SDS011;11412;50.802;4.350;2023-07-30T04:29:54;10.55;;;2.00;;
22490;SDS011;11412;50.802;4.350;2023-07-30T04:32:20;16.70;;;3.25;;
22490;SDS011;11412;50.802;4.350;2023-07-30T04:34:45;13.13;;;2.88;;
22490;SDS011;11412;50.802;4.350;2023-07-30T04:37:11;18.10;;;2.70;;
22490;SDS011;11412;50.802;4.350;2023-07-30T04:39:37;13.13;;;2.90;;
22490;SDS011;11412;50.802;4.350;2023-07-30T04:42:03;12.18;;;2.30;;
22490;SDS011;11412;50.802;4.350;2023-07-30T04:44:29;10.55;;;2.63;;
22490;SDS011;11412;50.802;4.350;2023-07-30T04:46:54;17.13;;;2.95;;
22490;SDS011;11412;50.802;4.350;2023-07-30T04:49:20;7.20;;;2.28;;
22490;SDS011;11412;50.802;4.350;2023-07-30T04:51:46;13.57;;;2.67;;
22490;SDS011;11412;50.802;4.350;2023-07-30T04:54:11;8.65;;;2.25;;
22490;SDS011;11412;50.802;4.350;2023-07-30T04:56:37;12.45;;;3.17;;
22490;SDS011;11412;50.802;4.350;2023-07-30T04:59:03;13.65;;;2.80;;
22490;SDS011;11412;50.802;4.350;2023-07-30T05:01:28;14.15;;;2.08;;
22490;SDS011;11412;50.802;4.350;2023-07-30T05:03:54;13.30;;;2.15;;
22490;SDS011;11412;50.802;4.350;2023-07-30T05:06:20;9.43;;;2.55;;
22490;SDS011;11412;50.802;4.350;2023-07-30T05:08:46;7.97;;;2.20;;
22490;SDS011;11412;50.802;4.350;2023-07-30T05:11:11;11.40;;;2.45;;
22490;SDS011;11412;50.802;4.350;2023-07-30T05:13:37;9.93;;;2.25;;
22490;SDS011;11412;50.802;4.350;2023-07-30T05:16:03;5.20;;;2.20;;
22490;SDS011;11412;50.802;4.350;2023-07-30T05:18:29;13.73;;;2.60;;
22490;SDS011;11412;50.802;4.350;2023-07-30T05:20:54;10.50;;;2.67;;
22490;SDS011;11412;50.802;4.350;2023-07-30T05:23:20;15.23;;;2.50;;
22490;SDS011;11412;50.802;4.350;2023-07-30T05:25:46;15.90;;;3.05;;
22490;SDS011;11412;50.802;4.350;2023-07-30T05:28:12;14.65;;;2.97;;
22490;SDS011;11412;50.802;4.350;2023-07-30T05:30:38;11.65;;;2.80;;
22490;SDS011;11412;50.802;4.350;2023-07-30T05:33:03;13.18;;;2.40;;
22490;SDS011;11412;50.802;4.350;2023-07-30T05:35:29;12.93;;;2.50;;
22490;SDS011;11412;50.802;4.350;2023-07-30T05:37:55;14.45;;;2.80;;
22490;SDS011;11412;50.802;4.350;2023-07-30T05:40:21;13.00;;;2.50;;
22490;SDS011;11412;50.802;4.350;2023-07-30T05:42:46;10.82;;;2.28;;
22490;SDS011;11412;50.802;4.350;2023-07-30T05:45:12;14.20;;;2.47;;
22490;SDS011;11412;50.802;4.350;2023-07-30T05:47:38;12.40;;;2.90;;
22490;SDS011;11412;50.802;4.350;2023-07-30T05:50:04;11.52;;;2.40;;
22490;SDS011;11412;50.802;4.350;2023-07-30T05:52:31;11.00;;;2.58;;
22490;SDS011;11412;50.802;4.350;2023-07-30T05:54:56;15.35;;;2.60;;
22490;SDS011;11412;50.802;4.350;2023-07-30T05:57:22;9.40;;;2.05;;
22490;SDS011;11412;50.802;4.350;2023-07-30T05:59:48;12.23;;;2.15;;
22490;SDS011;11412;50.802;4.350;2023-07-30T06:02:13;9.43;;;2.30;;
22490;SDS011;11412;50.802;4.350;2023-07-30T06:04:39;8.10;;;2.20;;
22490;SDS011;11412;50.802;4.350;2023-07-30T06:07:05;18.27;;;3.05;;
22490;SDS011;11412;50.802;4.350;2023-07-30T06:09:30;17.73;;;2.75;;
22490;SDS011;11412;50.802;4.350;2023-07-30T06:11:56;15.38;;;2.25;;
22490;SDS011;11412;50.802;4.350;2023-07-30T06:14:23;11.85;;;2.17;;
22490;SDS011;11412;50.802;4.350;2023-07-30T06:16:49;11.80;;;2.97;;
22490;SDS011;11412;50.802;4.350;2023-07-30T06:19:15;10.52;;;2.42;;
22490;SDS011;11412;50.802;4.350;2023-07-30T06:21:40;12.52;;;2.63;;
22490;SDS011;11412;50.802;4.350;2023-07-30T06:24:06;8.00;;;1.98;;
22490;SDS011;11412;50.802;4.350;2023-07-30T06:26:32;10.98;;;2.33;;
22490;SDS011;11412;50.802;4.350;2023-07-30T06:28:57;17.05;;;2.65;;
22490;SDS011;11412;50.802;4.350;2023-07-30T06:31:23;13.82;;;2.13;;
22490;SDS011;11412;50.802;4.350;2023-07-30T06:33:49;11.98;;;2.67;;
22490;SDS011;11412;50.802;4.350;2023-07-30T06:36:15;6.93;;;2.25;;
22490;SDS011;11412;50.802;4.350;2023-07-30T06:38:40;15.27;;;2.95;;
22490;SDS011;11412;50.802;4.350;2023-07-30T06:41:06;11.48;;;2.42;;
22490;SDS011;11412;50.802;4.350;2023-07-30T06:43:31;13.18;;;2.75;;
22490;SDS011;11412;50.802;4.350;2023-07-30T06:45:57;14.25;;;2.85;;
22490;SDS011;11412;50.802;4.350;2023-07-30T06:48:23;12.73;;;2.67;;
22490;SDS011;11412;50.802;4.350;2023-07-30T06:50:48;17.42;;;3.47;;
22490;SDS011;11412;50.802;4.350;2023-07-30T06:53:14;12.55;;;2.40;;
22490;SDS011;11412;50.802;4.350;2023-07-30T06:55:40;8.55;;;2.33;;
22490;SDS011;11412;50.802;4.350;2023-07-30T06:58:05;13.40;;;2.70;;
22490;SDS011;11412;50.802;4.350;2023-07-30T07:00:31;12.02;;;2.20;;
22490;SDS011;11412;50.802;4.350;2023-07-30T07:02:57;13.23;;;2.88;;
22490;SDS011;11412;50.802;4.350;2023-07-30T07:05:22;9.07;;;2.35;;
22490;SDS011;11412;50.802;4.350;2023-07-30T07:07:48;12.57;;;2.30;;
22490;SDS011;11412;50.802;4.350;2023-07-30T07:10:13;10.82;;;2.58;;
22490;SDS011;11412;50.802;4.350;2023-07-30T07:12:40;15.10;;;2.85;;
22490;SDS011;11412;50.802;4.350;2023-07-30T07:15:06;14.65;;;3.35;;
22490;SDS011;11412;50.802;4.350;2023-07-30T07:17:32;12.50;;;2.60;;
22490;SDS011;11412;50.802;4.350;2023-07-30T07:19:58;12.75;;;3.03;;
22490;SDS011;11412;50.802;4.350;2023-07-30T07:22:24;10.52;;;2.50;;
22490;SDS011;11412;50.802;4.350;2023-07-30T07:24:50;10.57;;;2.25;;
22490;SDS011;11412;50.802;4.350;2023-07-30T07:27:18;11.77;;;2.20;;
22490;SDS011;11412;50.802;4.350;2023-07-30T07:29:43;9.80;;;2.45;;
22490;SDS011;11412;50.802;4.350;2023-07-30T07:32:09;9.48;;;2.42;;
22490;SDS011;11412;50.802;4.350;2023-07-30T07:34:35;8.75;;;2.50;;
22490;SDS011;11412;50.802;4.350;2023-07-30T07:37:01;6.82;;;2.28;;
22490;SDS011;11412;50.802;4.350;2023-07-30T07:39:28;8.57;;;2.33;;
22490;SDS011;11412;50.802;4.350;2023-07-30T07:41:54;15.70;;;2.67;;
22490;SDS011;11412;50.802;4.350;2023-07-30T07:44:20;9.88;;;2.35;;
22490;SDS011;11412;50.802;4.350;2023-07-30T07:46:47;10.43;;;2.53;;
22490;SDS011;11412;50.802;4.350;2023-07-30T07:49:13;10.40;;;2.53;;
22490;SDS011;11412;50.802;4.350;2023-07-30T07:51:38;10.00;;;2.58;;
22490;SDS011;11412;50.802;4.350;2023-07-30T07:54:04;11.02;;;2.40;;
22490;SDS011;11412;50.802;4.350;2023-07-30T07:56:30;9.27;;;2.65;;
22490;SDS011;11412;50.802;4.350;2023-07-30T07:58:56;13.93;;;2.58;;
22490;SDS011;11412;50.802;4.350;2023-07-30T08:01:22;8.68;;;2.40;;
22490;SDS011;11412;50.802;4.350;2023-07-30T08:03:48;8.15;;;2.40;;
22490;SDS011;11412;50.802;4.350;2023-07-30T08:06:13;11.30;;;2.40;;
22490;SDS011;11412;50.802;4.350;2023-07-30T08:08:39;13.77;;;2.00;;
22490;SDS011;11412;50.802;4.350;2023-07-30T08:11:05;9.40;;;1.92;;
22490;SDS011;11412;50.802;4.350;2023-07-30T08:13:32;7.82;;;2.22;;
22490;SDS011;11412;50.802;4.350;2023-07-30T08:15:59;10.68;;;2.20;;
22490;SDS011;11412;50.802;4.350;2023-07-30T08:18:25;7.72;;;1.88;;
22490;SDS011;11412;50.802;4.350;2023-07-30T08:20:51;11.52;;;2.03;;
22490;SDS011;11412;50.802;4.350;2023-07-30T08:23:17;8.65;;;2.25;;
22490;SDS011;11412;50.802;4.350;2023-07-30T08:25:42;11.27;;;2.42;;
22490;SDS011;11412;50.802;4.350;2023-07-30T08:28:08;9.18;;;2.47;;
22490;SDS011;11412;50.802;4.350;2023-07-30T08:30:34;10.68;;;2.45;;
22490;SDS011;11412;50.802;4.350;2023-07-30T08:33:00;8.77;;;2.10;;
22490;SDS011;11412;50.802;4.350;2023-07-30T08:35:25;12.27;;;2.33;;
22490;SDS011;11412;50.802;4.350;2023-07-30T08:37:54;13.82;;;2.40;;
22490;SDS011;11412;50.802;4.350;2023-07-30T08:40:23;8.10;;;2.25;;
22490;SDS011;11412;50.802;4.350;2023-07-30T08:42:50;11.10;;;2.60;;
22490;SDS011;11412;50.802;4.350;2023-07-30T08:45:16;8.95;;;1.98;;
22490;SDS011;11412;50.802;4.350;2023-07-30T08:47:44;9.60;;;2.03;;
22490;SDS011;11412;50.802;4.350;2023-07-30T08:50:10;7.00;;;2.00;;
22490;SDS011;11412;50.802;4.350;2023-07-30T08:52:36;9.20;;;1.80;;
22490;SDS011;11412;50.802;4.350;2023-07-30T08:55:02;6.68;;;1.88;;
22490;SDS011;11412;50.802;4.350;2023-07-30T08:57:29;9.77;;;2.17;;
22490;SDS011;11412;50.802;4.350;2023-07-30T09:00:10;7.35;;;1.75;;
22490;SDS011;11412;50.802;4.350;2023-07-30T09:05:21;11.85;;;2.33;;
22490;SDS011;11412;50.802;4.350;2023-07-30T09:07:48;8.98;;;2.00;;
22490;SDS011;11412;50.802;4.350;2023-07-30T09:10:14;9.00;;;1.80;;
22490;SDS011;11412;50.802;4.350;2023-07-30T09:12:40;7.47;;;1.98;;
22490;SDS011;11412;50.802;4.350;2023-07-30T09:15:06;7.28;;;2.05;;
22490;SDS011;11412;50.802;4.350;2023-07-30T09:17:32;5.10;;;2.00;;
22490;SDS011;11412;50.802;4.350;2023-07-30T09:19:59;8.43;;;2.40;;
22490;SDS011;11412;50.802;4.350;2023-07-30T09:22:26;6.85;;;2.20;;
22490;SDS011;11412;50.802;4.350;2023-07-30T09:24:56;4.95;;;1.95;;
22490;SDS011;11412;50.802;4.350;2023-07-30T09:27:23;5.53;;;1.50;;
22490;SDS011;11412;50.802;4.350;2023-07-30T09:29:53;9.32;;;2.10;;
22490;SDS011;11412;50.802;4.350;2023-07-30T09:32:29;9.38;;;1.80;;
22490;SDS011;11412;50.802;4.350;2023-07-30T09:35:05;10.02;;;2.30;;
22490;SDS011;11412;50.802;4.350;2023-07-30T09:37:33;13.15;;;2.45;;
22490;SDS011;11412;50.802;4.350;2023-07-30T09:40:03;7.28;;;1.90;;
22490;SDS011;11412;50.802;4.350;2023-07-30T09:42:34;9.50;;;1.98;;
22490;SDS011;11412;50.802;4.350;2023-07-30T09:45:04;7.55;;;2.03;;
22490;SDS011;11412;50.802;4.350;2023-07-30T09:47:45;15.48;;;2.35;;
22490;SDS011;11412;50.802;4.350;2023-07-30T09:50:15;10.98;;;2.42;;
22490;SDS011;11412;50.802;4.350;2023-07-30T09:52:41;5.97;;;1.67;;
22490;SDS011;11412;50.802;4.350;2023-07-30T09:55:08;9.80;;;1.90;;
22490;SDS011;11412;50.802;4.350;2023-07-30T09:57:34;8.13;;;1.65;;
22490;SDS011;11412;50.802;4.350;2023-07-30T10:00:00;9.40;;;1.98;;
22490;SDS011;11412;50.802;4.350;2023-07-30T10:02:26;6.55;;;1.80;;
22490;SDS011;11412;50.802;4.350;2023-07-30T10:04:56;6.68;;;1.50;;
22490;SDS011;11412;50.802;4.350;2023-07-30T10:07:24;6.40;;;1.80;;
22490;SDS011;11412;50.802;4.350;2023-07-30T10:09:51;8.32;;;1.80;;
22490;SDS011;11412;50.802;4.350;2023-07-30T10:12:23;6.32;;;2.13;;
22490;SDS011;11412;50.802;4.350;2023-07-30T10:14:53;5.55;;;1.38;;
22490;SDS011;11412;50.802;4.350;2023-07-30T10:17:18;5.18;;;1.65;;
22490;SDS011;11412;50.802;4.350;2023-07-30T10:19:47;4.32;;;1.60;;
22490;SDS011;11412;50.802;4.350;2023-07-30T10:24:40;4.55;;;1.33;;
22490;SDS011;11412;50.802;4.350;2023-07-30T10:27:08;5.95;;;1.30;;
22490;SDS011;11412;50.802;4.350;2023-07-30T10:29:39;6.00;;;1.58;;
22490;SDS011;11412;50.802;4.350;2023-07-30T10:32:06;7.07;;;1.67;;
22490;SDS011;11412;50.802;4.350;2023-07-30T10:34:46;6.45;;;1.70;;
22490;SDS011;11412;50.802;4.350;2023-07-30T10:37:18;5.18;;;1.67;;
22490;SDS011;11412;50.802;4.350;2023-07-30T10:39:49;6.47;;;1.97;;
22490;SDS011;11412;50.802;4.350;2023-07-30T10:42:15;4.45;;;1.38;;
22490;SDS011;11412;50.802;4.350;2023-07-30T10:44:43;4.60;;;1.70;;
22490;SDS011;11412;50.802;4.350;2023-07-30T10:47:10;2.70;;;1.30;;
22490;SDS011;11412;50.802;4.350;2023-07-30T10:49:37;4.32;;;1.40;;
22490;SDS011;11412;50.802;4.350;2023-07-30T10:52:03;6.22;;;1.70;;
22490;SDS011;11412;50.802;4.350;2023-07-30T10:54:36;7.45;;;1.50;;
22490;SDS011;11412;50.802;4.350;2023-07-30T10:57:05;5.57;;;1.30;;
22490;SDS011;11412;50.802;4.350;2023-07-30T10:59:34;7.80;;;1.88;;
22490;SDS011;11412;50.802;4.350;2023-07-30T11:02:01;6.47;;;1.83;;
22490;SDS011;11412;50.802;4.350;2023-07-30T11:04:27;7.15;;;1.90;;
22490;SDS011;11412;50.802;4.350;2023-07-30T11:06:53;8.02;;;1.65;;
22490;SDS011;11412;50.802;4.350;2023-07-30T11:09:19;7.93;;;2.10;;
22490;SDS011;11412;50.802;4.350;2023-07-30T11:11:49;9.50;;;2.00;;
22490;SDS011;11412;50.802;4.350;2023-07-30T11:14:19;6.13;;;1.33;;
22490;SDS011;11412;50.802;4.350;2023-07-30T11:16:56;7.05;;;1.98;;
22490;SDS011;11412;50.802;4.350;2023-07-30T11:19:26;4.35;;;1.40;;
22490;SDS011;11412;50.802;4.350;2023-07-30T11:21:54;7.15;;;1.27;;
22490;SDS011;11412;50.802;4.350;2023-07-30T11:24:21;5.05;;;1.17;;
22490;SDS011;11412;50.802;4.350;2023-07-30T11:27:07;6.82;;;1.88;;
22490;SDS011;11412;50.802;4.350;2023-07-30T11:29:32;3.53;;;1.25;;
22490;SDS011;11412;50.802;4.350;2023-07-30T11:31:58;6.35;;;1.40;;
22490;SDS011;11412;50.802;4.350;2023-07-30T11:34:26;4.20;;;1.10;;
22490;SDS011;11412;50.802;4.350;2023-07-30T11:36:52;2.78;;;0.93;;
22490;SDS011;11412;50.802;4.350;2023-07-30T11:39:19;4.00;;;1.38;;
22490;SDS011;11412;50.802;4.350;2023-07-30T11:41:45;3.78;;;1.10;;
22490;SDS011;11412;50.802;4.350;2023-07-30T11:44:33;16.58;;;1.70;;
22490;SDS011;11412;50.802;4.350;2023-07-30T11:46:58;3.33;;;1.10;;
22490;SDS011;11412;50.802;4.350;2023-07-30T11:49:24;4.57;;;1.02;;
22490;SDS011;11412;50.802;4.350;2023-07-30T11:51:50;2.50;;;0.85;;
22490;SDS011;11412;50.802;4.350;2023-07-30T11:54:20;4.03;;;1.10;;
22490;SDS011;11412;50.802;4.350;2023-07-30T11:56:56;2.33;;;0.98;;
22490;SDS011;11412;50.802;4.350;2023-07-30T11:59:21;2.45;;;1.20;;
22490;SDS011;11412;50.802;4.350;2023-07-30T12:01:48;2.90;;;0.93;;
22490;SDS011;11412;50.802;4.350;2023-07-30T12:04:14;1.50;;;1.00;;
22490;SDS011;11412;50.802;4.350;2023-07-30T12:06:40;2.83;;;1.00;;
22490;SDS011;11412;50.802;4.350;2023-07-30T12:14:26;4.80;;;1.17;;
22490;SDS011;11412;50.802;4.350;2023-07-30T12:17:08;4.00;;;1.15;;
22490;SDS011;11412;50.802;4.350;2023-07-30T12:19:34;5.93;;;1.60;;
22490;SDS011;11412;50.802;4.350;2023-07-30T12:22:01;2.20;;;1.10;;
22490;SDS011;11412;50.802;4.350;2023-07-30T12:24:27;3.70;;;1.40;;
22490;SDS011;11412;50.802;4.350;2023-07-30T12:26:53;3.80;;;1.30;;
22490;SDS011;11412;50.802;4.350;2023-07-30T12:29:18;4.82;;;1.60;;
22490;SDS011;11412;50.802;4.350;2023-07-30T12:31:44;5.32;;;1.33;;
22490;SDS011;11412;50.802;4.350;2023-07-30T12:34:11;5.55;;;1.25;;
22490;SDS011;11412;50.802;4.350;2023-07-30T12:36:37;5.25;;;1.25;;
22490;SDS011;11412;50.802;4.350;2023-07-30T12:39:06;6.28;;;1.45;;
22490;SDS011;11412;50.802;4.350;2023-07-30T12:41:33;5.03;;;1.88;;
22490;SDS011;11412;50.802;4.350;2023-07-30T12:43:58;4.28;;;1.40;;
22490;SDS011;11412;50.802;4.350;2023-07-30T12:46:24;3.65;;;1.33;;
22490;SDS011;11412;50.802;4.350;2023-07-30T12:48:54;3.17;;;1.27;;
22490;SDS011;11412;50.802;4.350;2023-07-30T12:51:20;4.28;;;1.20;;
22490;SDS011;11412;50.802;4.350;2023-07-30T12:53:46;4.40;;;1.50;;
22490;SDS011;11412;50.802;4.350;2023-07-30T12:56:12;3.13;;;1.20;;
22490;SDS011;11412;50.802;4.350;2023-07-30T12:58:40;2.25;;;0.90;;
22490;SDS011;11412;50.802;4.350;2023-07-30T13:01:06;3.53;;;0.88;;
22490;SDS011;11412;50.802;4.350;2023-07-30T13:03:31;2.50;;;0.93;;
22490;SDS011;11412;50.802;4.350;2023-07-30T13:05:57;3.85;;;1.35;;
22490;SDS011;11412;50.802;4.350;2023-07-30T13:08:23;6.50;;;1.00;;
22490;SDS011;11412;50.802;4.350;2023-07-30T13:10:50;4.75;;;1.17;;
22490;SDS011;11412;50.802;4.350;2023-07-30T13:13:15;4.75;;;1.20;;
22490;SDS011;11412;50.802;4.350;2023-07-30T13:15:41;6.45;;;1.35;;
22490;SDS011;11412;50.802;4.350;2023-07-30T13:18:06;5.03;;;1.20;;
22490;SDS011;11412;50.802;4.350;2023-07-30T13:20:32;2.85;;;1.25;;
22490;SDS011;11412;50.802;4.350;2023-07-30T13:22:58;4.70;;;1.38;;
22490;SDS011;11412;50.802;4.350;2023-07-30T13:25:23;4.07;;;1.38;;
22490;SDS011;11412;50.802;4.350;2023-07-30T13:27:49;5.82;;;1.17;;
22490;SDS011;11412;50.802;4.350;2023-07-30T13:30:15;3.22;;;1.35;;
22490;SDS011;11412;50.802;4.350;2023-07-30T13:32:41;4.28;;;1.30;;
22490;SDS011;11412;50.802;4.350;2023-07-30T13:35:07;6.90;;;1.70;;
22490;SDS011;11412;50.802;4.350;2023-07-30T13:37:32;3.78;;;1.40;;
22490;SDS011;11412;50.802;4.350;2023-07-30T13:39:59;1.95;;;1.30;;
22490;SDS011;11412;50.802;4.350;2023-07-30T13:42:25;3.90;;;1.50;;
22490;SDS011;11412;50.802;4.350;2023-07-30T13:44:51;5.07;;;1.60;;
22490;SDS011;11412;50.802;4.350;2023-07-30T13:47:16;3.45;;;1.30;;
22490;SDS011;11412;50.802;4.350;2023-07-30T13:49:42;5.18;;;2.15;;
22490;SDS011;11412;50.802;4.350;2023-07-30T13:52:08;5.13;;;1.63;;
22490;SDS011;11412;50.802;4.350;2023-07-30T13:54:34;5.75;;;1.75;;
22490;SDS011;11412;50.802;4.350;2023-07-30T13:57:03;6.20;;;1.50;;
22490;SDS011;11412;50.802;4.350;2023-07-30T13:59:30;5.13;;;1.75;;
22490;SDS011;11412;50.802;4.350;2023-07-30T14:01:56;7.57;;;2.22;;
22490;SDS011;11412;50.802;4.350;2023-07-30T14:04:21;5.20;;;1.15;;
22490;SDS011;11412;50.802;4.350;2023-07-30T14:06:47;2.67;;;1.40;;
22490;SDS011;11412;50.802;4.350;2023-07-30T14:09:13;8.50;;;1.70;;
22490;SDS011;11412;50.802;4.350;2023-07-30T14:11:38;5.35;;;1.50;;
22490;SDS011;11412;50.802;4.350;2023-07-30T14:14:08;3.20;;;1.30;;
22490;SDS011;11412;50.802;4.350;2023-07-30T14:16:33;4.70;;;1.52;;
22490;SDS011;11412;50.802;4.350;2023-07-30T14:18:59;2.60;;;1.55;;
22490;SDS011;11412;50.802;4.350;2023-07-30T14:21:24;3.35;;;1.35;;
22490;SDS011;11412;50.802;4.350;2023-07-30T14:23:50;3.95;;;1.60;;
22490;SDS011;11412;50.802;4.350;2023-07-30T14:26:16;4.63;;;2.22;;
22490;SDS011;11412;50.802;4.350;2023-07-30T14:28:41;2.60;;;1.50;;
22490;SDS011;11412;50.802;4.350;2023-07-30T14:31:07;9.80;;;1.92;;
22490;SDS011;11412;50.802;4.350;2023-07-30T14:33:33;4.75;;;1.70;;
22490;SDS011;11412;50.802;4.350;2023-07-30T14:35:58;3.85;;;1.80;;
22490;SDS011;11412;50.802;4.350;2023-07-30T14:38:24;6.20;;;1.30;;
22490;SDS011;11412;50.802;4.350;2023-07-30T14:40:49;2.88;;;1.30;;
22490;SDS011;11412;50.802;4.350;2023-07-30T14:43:15;8.10;;;1.60;;
22490;SDS011;11412;50.802;4.350;2023-07-30T14:45:41;3.08;;;1.70;;
22490;SDS011;11412;50.802;4.350;2023-07-30T14:48:06;5.82;;;1.98;;
22490;SDS011;11412;50.802;4.350;2023-07-30T14:50:32;8.23;;;2.65;;
22490;SDS011;11412;50.802;4.350;2023-07-30T14:52:57;4.20;;;1.65;;